Data for 05/17/2014

Time Sea-Level Adjusted Pressure Absolute Pressure Temperature Relative Humidity Dew Point   
(mb) (inHg) (mb) (inHg) (C) (F) (%) (C) (F)
00:05 1019 30.09 848 25.04 8.4 47.1 79 5.1 41.1
00:10 1019 30.09 848 25.04 8.4 47.2 78 4.9 40.8
00:15 1019 30.09 848 25.04 8.4 47 78 4.8 40.6
00:20 1019 30.09 848 25.04 8.3 46.9 78 4.7 40.5
00:25 1019 30.09 848 25.04 8.3 46.9 78 4.6 40.4
00:30 1019 30.09 848 25.04 8.3 47 78 4.7 40.5
00:35 1019 30.09 848 25.04 8.3 46.9 79 4.8 40.6
00:40 1019 30.09 848 25.04 8.2 46.7 81 5 41.1
00:45 1019 30.09 848 25.04 8.1 46.6 82 5.2 41.3
00:50 1019 30.09 848 25.04 8.2 46.7 82 5.2 41.4
00:55 1019 30.09 848 25.04 8.2 46.8 82 5.3 41.5
01:00 1019 30.09 848 25.04 8.2 46.8 80 5 41.1
01:05 1019 30.09 848 25.04 8.1 46.5 82 5.2 41.4
01:10 1019 30.09 848 25.04 8 46.4 82 5.2 41.4
01:15 1019 30.09 848 25.04 8 46.4 82 5.2 41.3
01:20 1019 30.09 848 25.04 8 46.4 83 5.3 41.5
01:25 1019 30.09 848 25.04 8.1 46.6 82 5.3 41.5
01:30 1019 30.09 848 25.04 8.1 46.5 81 5 41
01:35 1019 30.09 848 25.04 7.8 46.1 79 4.5 40.1
01:40 1019 30.09 848 25.04 7.4 45.2 82 4.5 40.1
01:45 1019 30.09 848 25.04 7 44.7 82 4.3 39.7
01:50 1019 30.09 848 25.04 6.8 44.3 82 3.9 39.1
01:55 1019 30.09 848 25.04 6.7 44.1 83 4 39.3
02:00 1019 30.09 848 25.04 6.7 44 84 4.3 39.7
02:05 1019 30.09 848 25.04 6.8 44.3 85 4.5 40.2
02:10 1019 30.09 848 25.04 6.8 44.3 85 4.5 40.1
02:15 1019 30.09 848 25.04 6.9 44.5 85 4.6 40.2
02:20 1019 30.09 848 25.04 7.1 44.7 85 4.7 40.5
02:25 1019 30.09 848 25.04 7.1 44.8 85 4.7 40.5
02:30 1019 30.09 848 25.04 7.1 44.8 84 4.6 40.3
02:35 1019 30.09 848 25.04 7.1 44.7 86 4.9 40.8
02:40 1018 30.06 848 25.04 7 44.7 86 4.9 40.9
02:45 1018 30.06 848 25.04 7 44.7 87 5 41
02:50 1018 30.06 848 25.04 6.9 44.4 88 5.1 41.1
02:55 1018 30.06 848 25.04 6.8 44.2 88 4.9 40.8
03:00 1018 30.06 848 25.04 6.7 44.1 88 4.8 40.7
03:05 1018 30.06 848 25.04 6.8 44.3 86 4.7 40.5
03:10 1018 30.06 848 25.04 7 44.7 86 4.8 40.7
03:15 1018 30.06 848 25.04 7.1 44.7 86 4.8 40.7
03:20 1018 30.06 848 25.04 7.1 44.7 86 5 40.9
03:25 1018 30.06 848 25.04 6.9 44.4 87 5 40.9
03:30 1018 30.06 847 25.01 6.8 44.3 87 4.8 40.6
03:35 1018 30.06 847 25.01 7 44.5 87 5 40.9
03:40 1018 30.06 847 25.01 6.9 44.5 88 5.1 41.2
03:45 1018 30.06 847 25.01 6.8 44.3 89 5.1 41.2
03:50 1018 30.06 847 25.01 6.8 44.3 89 5.1 41.3
03:55 1018 30.06 847 25.01 6.9 44.4 89 5.2 41.3
04:00 1018 30.06 847 25.01 6.9 44.4 90 5.3 41.5
04:05 1018 30.06 847 25.01 7 44.6 89 5.3 41.6
04:10 1018 30.06 847 25.01 7.1 44.8 90 5.5 41.9
04:15 1018 30.06 847 25.01 7.1 44.8 90 5.6 42.1
04:20 1018 30.06 847 25.01 7.1 44.7 89 5.5 41.8
04:25 1018 30.06 847 25.01 7.1 44.8 88 5.3 41.5
04:30 1018 30.06 847 25.01 7.1 44.8 88 5.3 41.6
04:35 1018 30.06 847 25.01 7.2 45 87 5.3 41.5
04:40 1018 30.06 847 25.01 7.3 45.1 87 5.3 41.5
04:45 1018 30.06 847 25.01 7.3 45.2 87 5.3 41.6
04:50 1018 30.06 847 25.01 7.4 45.3 88 5.5 42
04:55 1018 30.06 847 25.01 7.5 45.4 87 5.5 41.9
05:00 1018 30.06 847 25.01 7.5 45.6 85 5.2 41.3
05:05 1018 30.06 847 25.01 7.7 45.8 84 5.1 41.1
05:10 1018 30.06 847 25.01 7.8 46 84 5.3 41.5
05:15 1018 30.06 847 25.01 7.7 45.8 85 5.2 41.4
05:20 1018 30.06 847 25.01 7.5 45.6 86 5.4 41.6
05:25 1018 30.06 847 25.01 7.5 45.4 87 5.4 41.7
05:30 1018 30.06 847 25.01 7.4 45.2 88 5.4 41.8
05:35 1018 30.06 847 25.01 7.2 45 89 5.5 41.9
05:40 1018 30.06 847 25.01 7.2 44.9 89 5.5 41.9
05:45 1017 30.03 847 25.01 7.2 45 88 5.3 41.6
05:50 1017 30.03 847 25.01 7.4 45.2 86 5.2 41.3
05:55 1018 30.06 847 25.01 7.5 45.5 85 5.1 41.2
06:00 1018 30.06 847 25.01 7.6 45.7 87 5.5 41.9
06:05 1018 30.06 847 25.01 7.5 45.4 87 5.4 41.8
06:10 1018 30.06 847 25.01 7.4 45.4 87 5.4 41.7
06:15 1018 30.06 847 25.01 7.4 45.4 87 5.5 41.9
06:20 1018 30.06 847 25.01 7.5 45.5 87 5.5 42
06:25 1018 30.06 847 25.01 7.6 45.7 86 5.5 41.8
06:30 1018 30.06 847 25.01 7.7 45.9 86 5.5 42
06:35 1018 30.06 847 25.01 7.9 46.1 85 5.5 41.9
06:40 1018 30.06 847 25.01 8 46.4 85 5.6 42
06:45 1018 30.06 847 25.01 8.2 46.7 83 5.4 41.7
06:50 1018 30.06 847 25.01 8.6 47.5 82 5.7 42.2
06:55 1018 30.06 847 25.01 9.2 48.5 80 5.8 42.5
07:00 1018 30.06 847 25.01 9.3 48.7 80 6 42.8
07:05 1018 30.06 847 25.01 9.5 49.1 79 6.1 43
07:10 1018 30.06 847 25.01 9.1 48.4 81 6 42.9
07:15 1018 30.06 847 25.01 9.7 49.5 76 5.7 42.3
07:20 1018 30.06 847 25.01 10 50 76 6 42.8
07:25 1018 30.06 847 25.01 10.2 50.4 77 6.4 43.6
07:30 1018 30.06 847 25.01 10.7 51.3 73 6.2 43.1
07:35 1018 30.06 847 25.01 10.3 50.6 76 6.4 43.5
07:40 1018 30.06 847 25.01 10.6 51.1 73 5.9 42.7
07:45 1018 30.06 847 25.01 10.9 51.6 71 6 42.7
07:50 1018 30.06 847 25.01 11.1 51.9 71 6 42.8
07:55 1018 30.06 847 25.01 11.1 52 70 5.9 42.7
08:00 1018 30.06 847 25.01 11.3 52.3 72 6.5 43.6
08:05 1018 30.06 847 25.01 11.8 53.2 67 5.9 42.6
08:10 1018 30.06 847 25.01 12.6 54.6 66 6.3 43.4
08:15 1018 30.06 847 25.01 12.6 54.6 64 6 42.8
08:20 1017 30.03 847 25.01 12.2 53.9 67 6.4 43.5
08:25 1017 30.03 847 25.01 11.9 53.4 66 5.7 42.3
08:30 1017 30.03 847 25.01 12.1 53.9 65 5.7 42.3
08:35 1017 30.03 847 25.01 12.9 55.2 62 5.9 42.6
08:40 1017 30.03 847 25.01 13.8 56.8 59 5.9 42.6
08:45 1017 30.03 847 25.01 14.1 57.4 57 5.8 42.4
08:50 1017 30.03 847 25.01 14.8 58.6 51 4.8 40.6
08:55 1017 30.03 847 25.01 14.4 58 55 5.6 42.1
09:00 1017 30.03 847 25.01 14 57.3 56 5.6 42.1
09:05 1017 30.03 846 24.98 13.5 56.3 55 4.8 40.6
09:10 1017 30.03 846 24.98 13.9 56.9 51 3.9 39
09:15 1017 30.03 846 24.98 13.9 57 53 4.5 40.1
09:20 1017 30.03 846 24.98 14.3 57.8 52 4.8 40.6
09:25 1017 30.03 846 24.98 15 59 52 5.4 41.7
09:30 1017 30.03 846 24.98 15.2 59.4 51 5.1 41.2
09:35 1017 30.03 846 24.98 15.3 59.5 50 5 40.9
09:40 1017 30.03 846 24.98 16 60.8 48 5 40.9
09:45 1017 30.03 846 24.98 15.1 59.1 51 5.1 41.2
09:50 1017 30.03 846 24.98 15.2 59.4 47 4 39.2
09:55 1017 30.03 846 24.98 15.8 60.5 46 4.2 39.5
10:00 1017 30.03 846 24.98 16.9 62.4 43 4.5 40.1
10:05 1017 30.03 846 24.98 17.2 63 44 4.8 40.7
10:10 1017 30.03 846 24.98 16.9 62.5 44 4.7 40.5
10:15 1017 30.03 846 24.98 16.7 62 47 5.4 41.7
10:20 1017 30.03 846 24.98 16.5 61.7 45 4.6 40.3
10:25 1017 30.03 846 24.98 17 62.7 43 4.4 40
10:30 1017 30.03 846 24.98 17.2 62.9 44 4.8 40.6
10:35 1017 30.03 846 24.98 16.2 61.2 48 5.3 41.5
10:40 1017 30.03 846 24.98 16 60.8 48 5.1 41.1
10:45 1017 30.03 846 24.98 16.3 61.4 44 4.3 39.7
10:50 1017 30.03 846 24.98 16.7 62.1 44 4.7 40.4
10:55 1017 30.03 846 24.98 16.6 62 47 5.3 41.6
11:00 1016 30 846 24.98 16.6 61.8 46 5.1 41.2
11:05 1016 30 846 24.98 16.3 61.3 47 4.9 40.9
11:10 1016 30 846 24.98 15.7 60.3 46 4.1 39.4
11:15 1016 30 846 24.98 16.6 61.9 45 4.8 40.6
11:20 1016 30 845 24.95 18.1 64.6 38 3.9 39
11:25 1016 30 845 24.95 18.5 65.3 40 5 40.9
11:30 1016 30 845 24.95 16.8 62.3 45 4.8 40.7
11:35 1016 30 845 24.95 16.8 62.3 41 3.5 38.3
11:40 1016 30 845 24.95 17.1 62.8 45 5.1 41.1
11:45 1016 30 845 24.95 16.5 61.6 43 3.8 38.9
11:50 1016 30 845 24.95 17.5 63.5 40 4 39.2
11:55 1016 30 845 24.95 17 62.6 40 3.6 38.5
12:00 1016 30 845 24.95 18 64.3 39 4 39.3
12:05 1016 30 845 24.95 18.6 65.5 34 2.6 36.6
12:10 1015 29.97 845 24.95 18.8 65.8 41 5.2 41.4
12:15 1015 29.97 845 24.95 17.7 63.8 41 4.5 40
12:20 1015 29.97 845 24.95 18.5 65.4 39 4.4 39.9
12:25 1015 29.97 844 24.92 19.5 67.2 35 3.7 38.7
12:30 1015 29.97 844 24.92 19.2 66.6 35 3.6 38.4
12:35 1015 29.97 844 24.92 19.1 66.4 34 3 37.4
12:40 1015 29.97 844 24.92 19.8 67.6 33 3.2 37.7
12:45 1015 29.97 844 24.92 19.4 66.9 30 1.6 34.9
12:50 1015 29.97 844 24.92 19.5 67 32 2.4 36.3
12:55 1015 29.97 844 24.92 19.3 66.7 33 2.7 36.9
13:00 1015 29.97 844 24.92 18.9 66 33 2.5 36.4
13:05 1015 29.97 844 24.92 18.4 65.2 33 2.2 35.9
13:10 1015 29.97 844 24.92 18.6 65.5 34 2.5 36.4
13:15 1015 29.97 844 24.92 19.4 66.9 31 2 35.6
13:20 1015 29.97 844 24.92 20.4 68.7 29 2 35.5
13:25 1015 29.97 844 24.92 20.6 69 29 2.2 35.9
13:30 1015 29.97 844 24.92 20.8 69.4 29 2.3 36.2
13:35 1015 29.97 844 24.92 19.8 67.7 32 2.7 36.8
13:40 1015 29.97 844 24.92 19 66.2 32 2 35.5
13:45 1014 29.94 844 24.92 19.2 66.5 30 1.5 34.6
13:50 1014 29.94 844 24.92 19.2 66.6 28 0.6 33
13:55 1014 29.94 843 24.89 20.7 69.2 27 1.2 34.1
14:00 1014 29.94 843 24.89 21.3 70.3 27 1.7 35.1
14:05 1014 29.94 843 24.89 21.4 70.6 26 1.4 34.5
14:10 1014 29.94 843 24.89 21.6 70.8 24 0.5 32.9
14:15 1014 29.94 843 24.89 21.8 71.3 25 1.2 34.2
14:20 1014 29.94 843 24.89 21.7 71.1 25 1 33.8
14:25 1014 29.94 843 24.89 20.9 69.7 26 0.9 33.5
14:30 1014 29.94 843 24.89 22 71.6 23 0.3 32.6
14:35 1014 29.94 843 24.89 21.5 70.8 25 1 33.8
14:40 1014 29.94 843 24.89 21.5 70.6 24 0.5 32.8
14:45 1014 29.94 843 24.89 20.9 69.7 24 -0.1 31.8
14:50 1014 29.94 843 24.89 21.7 71 24 0.5 32.9
14:55 1013 29.91 843 24.89 21.9 71.5 24 0.6 33.1
15:00 1013 29.91 843 24.89 21.6 70.9 24 0.3 32.6
15:05 1013 29.91 843 24.89 21.9 71.4 24 0.5 32.9
15:10 1013 29.91 843 24.89 21.8 71.2 25 1.3 34.4
15:15 1013 29.91 842 24.86 21.3 70.3 25 0.4 32.8
15:20 1013 29.91 842 24.86 21.9 71.4 24 0.6 33
15:25 1013 29.91 842 24.86 22 71.5 25 1.3 34.3
15:30 1013 29.91 842 24.86 21.5 70.7 26 1.2 34.1
15:35 1013 29.91 842 24.86 22.3 72.1 25 1.3 34.3
15:40 1013 29.91 842 24.86 22.9 73.1 24 1.5 34.7
15:45 1013 29.91 842 24.86 22.7 72.9 25 1.6 34.9
15:50 1013 29.91 842 24.86 21.7 71 26 1.5 34.7
15:55 1013 29.91 842 24.86 22.4 72.3 24 1.3 34.3
16:00 1013 29.91 842 24.86 22.4 72.3 25 1.7 35
16:05 1013 29.91 842 24.86 22.4 72.2 24 1.3 34.3
16:10 1012 29.88 842 24.86 22.3 72.1 25 1.2 34.2
16:15 1012 29.88 842 24.86 22.2 72 24 0.8 33.5
16:20 1012 29.88 842 24.86 22.3 72.1 24 1.1 33.9
16:25 1012 29.88 841 24.83 22.4 72.3 24 0.9 33.6
16:30 1012 29.88 841 24.83 22 71.7 24 0.9 33.7
16:35 1012 29.88 841 24.83 21.8 71.2 25 1 33.8
16:40 1012 29.88 841 24.83 21.6 70.8 26 1.2 34.2
16:45 1012 29.88 841 24.83 20.8 69.5 27 1.1 33.9
16:50 1012 29.88 841 24.83 20.8 69.5 26 0.8 33.4
16:55 1012 29.88 841 24.83 21 69.9 26 0.8 33.4
17:00 1012 29.88 841 24.83 20.8 69.5 26 1 33.8
17:05 1012 29.88 841 24.83 20.6 69 26 0.7 33.2
17:10 1011 29.85 841 24.83 20.6 69 27 0.8 33.5
17:15 1011 29.85 841 24.83 20.4 68.6 27 0.9 33.6
17:20 1011 29.85 840 24.81 20.5 68.9 27 1.1 34.1
17:25 1011 29.85 840 24.81 20.1 68.3 32 3 37.4
17:30 1011 29.85 840 24.81 19.8 67.7 33 3.5 38.2
17:35 1011 29.85 840 24.81 19.5 67 34 3.4 38.1
17:40 1011 29.85 840 24.81 19.1 66.4 36 3.8 38.9
17:45 1011 29.85 840 24.81 18.8 65.9 38 4.2 39.6
17:50 1011 29.85 840 24.81 18.5 65.3 42 5.3 41.5
17:55 1011 29.85 840 24.81 18 64.5 44 5.6 42.2
18:00 1011 29.85 840 24.81 17.6 63.7 37 2.8 37
18:05 1011 29.85 840 24.81 17 62.7 38 2.8 37
18:10 1011 29.85 840 24.81 16.5 61.7 39 2.6 36.7
18:15 1011 29.85 840 24.81 16.3 61.3 41 3 37.3
18:20 1011 29.85 841 24.83 16.1 60.9 40 2.6 36.8
18:25 1012 29.88 841 24.83 16.1 60.9 40 2.7 36.9
18:30 1012 29.88 841 24.83 15.9 60.6 42 2.9 37.3
18:35 1012 29.88 841 24.83 15.7 60.3 44 3.6 38.4
18:40 1012 29.88 842 24.86 15.6 60.1 51 5.7 42.2
18:45 1012 29.88 842 24.86 14.6 58.3 52 5 41
18:50 1012 29.88 841 24.83 14.2 57.5 54 5 41.1
18:55 1012 29.88 841 24.83 14.1 57.4 53 4.8 40.7
19:00 1012 29.88 841 24.83 14.1 57.3 55 5.2 41.3
19:05 1012 29.88 841 24.83 13.8 56.9 55 5 41
19:10 1012 29.88 842 24.86 13.7 56.6 53 4.4 39.8
19:15 1012 29.88 842 24.86 13.6 56.5 55 4.7 40.4
19:20 1012 29.88 842 24.86 13.5 56.3 55 4.7 40.4
19:25 1012 29.88 842 24.86 13.3 56 52 3.7 38.6
19:30 1012 29.88 842 24.86 13.4 56.1 54 4.4 40
19:35 1012 29.88 842 24.86 13.2 55.8 55 4.4 39.9
19:40 1012 29.88 841 24.83 13.2 55.8 53 3.9 39
19:45 1012 29.88 842 24.86 13.2 55.8 55 4.5 40.1
19:50 1012 29.88 841 24.83 13.1 55.6 56 4.6 40.2
19:55 1012 29.88 842 24.86 13 55.4 57 4.7 40.5
20:00 1012 29.88 842 24.86 12.9 55.3 57 4.7 40.5
20:05 1012 29.88 842 24.86 13.1 55.5 58 4.9 40.9
20:10 1012 29.88 842 24.86 13 55.3 62 5.9 42.6
20:15 1012 29.88 841 24.83 12.7 54.8 64 6.1 42.9
20:20 1012 29.88 841 24.83 12.5 54.5 63 5.7 42.3
20:25 1012 29.88 841 24.83 12.6 54.7 62 5.5 42
20:30 1012 29.88 841 24.83 12.6 54.7 62 5.6 42.2
20:35 1012 29.88 841 24.83 12.6 54.6 63 5.7 42.2
20:40 1012 29.88 841 24.83 12.5 54.5 66 6.3 43.3
20:45 1012 29.88 841 24.83 12.1 53.8 69 6.6 43.9
20:50 1012 29.88 841 24.83 11.8 53.3 69 6.4 43.5
20:55 1013 29.91 842 24.86 11.8 53.3 70 6.6 43.9
21:00 1013 29.91 842 24.86 11.6 52.9 73 6.9 44.4
21:05 1013 29.91 842 24.86 11.4 52.5 76 7.3 45.1
21:10 1013 29.91 842 24.86 11.1 51.9 78 7.3 45.2
21:15 1013 29.91 842 24.86 10.9 51.6 78 7.2 44.9
21:20 1013 29.91 842 24.86 10.9 51.6 77 7.1 44.7
21:25 1013 29.91 842 24.86 11 51.8 73 6.4 43.5
21:30 1013 29.91 842 24.86 11 51.9 76 7.1 44.7
21:35 1013 29.91 842 24.86 10.8 51.4 76 6.7 44.1
21:40 1013 29.91 842 24.86 11 51.7 74 6.6 43.9
21:45 1013 29.91 842 24.86 10.8 51.5 75 6.5 43.7
21:50 1012 29.88 842 24.86 10.7 51.3 76 6.7 44
21:55 1012 29.88 842 24.86 10.5 51 77 6.6 43.9
22:00 1012 29.88 841 24.83 10.4 50.7 77 6.6 43.9
22:05 1012 29.88 841 24.83 10.3 50.5 77 6.4 43.5
22:10 1012 29.88 842 24.86 10.2 50.3 79 6.6 43.9
22:15 1012 29.88 842 24.86 10.1 50.1 78 6.5 43.7
22:20 1012 29.88 842 24.86 10 50 79 6.5 43.7
22:25 1012 29.88 842 24.86 9.9 49.9 79 6.4 43.6
22:30 1012 29.88 842 24.86 9.9 49.9 78 6.3 43.4
22:35 1013 29.91 842 24.86 9.9 49.9 78 6.2 43.2
22:40 1013 29.91 842 24.86 9.9 49.9 78 6.2 43.2
22:45 1013 29.91 842 24.86 10 50 76 6 42.8
22:50 1013 29.91 842 24.86 10.1 50.2 76 6.2 43.1
22:55 1013 29.91 842 24.86 10.1 50.2 74 5.7 42.3
23:00 1013 29.91 842 24.86 10.2 50.4 75 6.1 42.9
23:05 1013 29.91 842 24.86 10 50.1 77 6.1 43.1
23:10 1013 29.91 842 24.86 9.8 49.7 77 6.1 42.9
23:15 1013 29.91 842 24.86 9.8 49.6 76 5.9 42.6
23:20 1013 29.91 842 24.86 9.8 49.6 78 6.1 43
23:25 1013 29.91 842 24.86 9.5 49.1 77 5.7 42.3
23:30 1013 29.91 842 24.86 9.4 48.8 77 5.6 42.1
23:35 1013 29.91 842 24.86 9.3 48.7 79 5.8 42.4
23:40 1013 29.91 842 24.86 9.3 48.7 79 5.9 42.5
23:45 1013 29.91 842 24.86 9.1 48.4 80 5.9 42.6
23:50 1013 29.91 842 24.86 9 48.2 81 5.9 42.6
23:55 1013 29.91 842 24.86 9 48.1 80 5.7 42.3
24:00 1012 29.88 842 24.86 8.8 47.9 78 5.3 41.5